Terminal Aerodrome Forecast
Issued by NWS

Home | Current Version | Previous Version | Text Only | Print | Product List | Glossary On
Versions: 1 2 3 4 5 6 7 8 9 10 11 12 13 14
000
FTUS44 KLIX 060551
TAFMCB
TAF
KMCB 060551Z 0606/0706 12004KT P6SM FEW250
      TEMPO 0609/0613 4SM BR SCT015
     FM061500 14009KT P6SM SCT035
     FM070000 15005KT P6SM SCT090=

USA.gov is the U.S. government's official web portal to all federal, state and local government web resources and services.